Time;durP1;ratioP1;P1;durP2;ratioP2;P2;SDS_P1;SDS_P2;PMS_P1;PMS_P2;Temp;Humidity;BMP_temperature;BMP_pressure;BME280_temperature;BME280_humidity;BME280_pressure;Samples;Min_cycle;Max_cycle;Signal;HPM_P1;HPM_P2
2022/12/13 00:00:23;;;;;;;45.30;21.02;;;-3.90;99.90;;;;;;5118324;27;20051;-61
2022/12/13 00:02:49;;;;;;;41.63;20.58;;;-4.00;99.90;;;;;;5121744;27;20039;-61
2022/12/13 00:05:16;;;;;;;43.35;21.20;;;-4.10;99.90;;;;;;5125606;27;20660;-61
2022/12/13 00:07:41;;;;;;;40.88;20.70;;;-4.00;99.90;;;;;;5126463;27;20063;-61
2022/12/13 00:10:07;;;;;;;41.58;20.58;;;-4.10;99.90;;;;;;5110693;27;20386;-61
2022/12/13 00:12:33;;;;;;;44.55;22.45;;;-4.10;99.90;;;;;;5110520;27;20058;-61
2022/12/13 00:14:59;;;;;;;41.72;20.83;;;-4.10;99.90;;;;;;5109112;27;20036;-61
2022/12/13 00:17:25;;;;;;;47.65;22.55;;;-4.10;99.90;;;;;;5093584;28;20044;-61
2022/12/13 00:19:51;;;;;;;41.30;20.95;;;-4.10;99.90;;;;;;5107768;28;20046;-61
2022/12/13 00:22:18;;;;;;;39.72;20.05;;;-4.10;99.90;;;;;;5106807;28;20443;-61
2022/12/13 00:24:43;;;;;;;40.28;20.25;;;-4.20;99.90;;;;;;5069900;28;20146;-61
2022/12/13 00:27:09;;;;;;;48.97;21.80;;;-4.20;99.90;;;;;;5107726;27;20043;-61
2022/12/13 00:29:35;;;;;;;39.50;20.58;;;-4.20;99.90;;;;;;5105733;28;20067;-61
2022/12/13 00:32:01;;;;;;;41.58;20.23;;;-4.20;99.90;;;;;;5114919;27;20082;-61
2022/12/13 00:34:27;;;;;;;43.45;20.33;;;-4.20;99.90;;;;;;5112787;27;20039;-61
2022/12/13 00:36:53;;;;;;;40.60;20.33;;;-4.20;99.90;;;;;;5111577;27;20435;-61
2022/12/13 00:39:19;;;;;;;42.15;20.60;;;-4.30;99.90;;;;;;5114760;27;20048;-61
2022/12/13 00:41:46;;;;;;;42.72;21.48;;;-4.20;99.90;;;;;;5089131;28;20494;-61
2022/12/13 00:44:12;;;;;;;41.88;20.58;;;-4.30;99.90;;;;;;5107446;28;20047;-61
2022/12/13 00:46:39;;;;;;;40.28;19.65;;;-4.30;99.90;;;;;;5106759;28;20055;-61
2022/12/13 00:49:05;;;;;;;50.10;21.00;;;-4.20;99.90;;;;;;5116871;27;20040;-61
2022/12/13 00:51:33;;;;;;;45.28;20.90;;;-4.30;99.90;;;;;;5088752;28;20079;-61
2022/12/13 00:54:01;;;;;;;37.15;18.60;;;-4.30;99.90;;;;;;5107728;28;20126;-61
2022/12/13 00:56:29;;;;;;;40.00;19.23;;;-4.30;99.90;;;;;;5107339;28;20185;-61
2022/12/13 00:58:55;;;;;;;45.30;20.98;;;-4.30;99.90;;;;;;5094045;28;20134;-61
2022/12/13 01:01:24;;;;;;;42.30;20.77;;;-4.40;99.90;;;;;;5106920;27;20396;-61
2022/12/13 01:03:52;;;;;;;43.25;20.05;;;-4.40;99.90;;;;;;5106389;28;20351;-61
2022/12/13 01:06:42;;;;;;;40.97;20.00;;;-4.50;99.90;;;;;;5120139;27;20114;-61
2022/12/13 01:09:28;;;;;;;40.95;17.98;;;-4.40;99.90;;;;;;5105081;27;20085;-61
2022/12/13 01:12:00;;;;;;;37.97;18.60;;;-4.40;99.90;;;;;;5106784;28;20474;-61
2022/12/13 01:14:27;;;;;;;40.17;19.33;;;-4.40;99.90;;;;;;5107056;28;20047;-61
2022/12/13 01:16:55;;;;;;;39.15;19.65;;;-4.40;99.90;;;;;;5106290;28;20075;-61
2022/12/13 01:19:25;;;;;;;36.63;18.73;;;-4.40;99.90;;;;;;5120579;27;20485;-61
2022/12/13 01:21:58;;;;;;;41.47;21.17;;;-4.40;99.90;;;;;;5106061;28;20055;-61
2022/12/13 01:24:25;;;;;;;35.53;18.65;;;-4.40;99.90;;;;;;5088565;28;20051;-61
2022/12/13 01:26:52;;;;;;;43.50;19.25;;;-4.50;99.90;;;;;;5106084;28;20050;-61
2022/12/13 01:29:19;;;;;;;37.92;18.63;;;-4.50;99.90;;;;;;5095920;28;20456;-61
2022/12/13 01:31:45;;;;;;;40.55;18.73;;;-4.50;99.90;;;;;;5115583;27;20469;-61
2022/12/13 01:34:13;;;;;;;44.45;19.90;;;-4.50;99.90;;;;;;5110583;27;20444;-60
2022/12/13 01:36:41;;;;;;;37.30;18.63;;;-4.50;99.90;;;;;;5102784;27;20154;-61
2022/12/13 01:39:09;;;;;;;42.83;18.70;;;-4.50;99.90;;;;;;5080582;27;20126;-61
2022/12/13 01:41:35;;;;;;;42.20;19.73;;;-4.50;99.90;;;;;;5112967;27;20036;-61
2022/12/13 01:44:03;;;;;;;40.17;19.00;;;-4.40;99.90;;;;;;5087611;28;20062;-61
2022/12/13 01:46:34;;;;;;;39.65;19.35;;;-4.30;99.90;;;;;;5088496;27;20043;-61
2022/12/13 01:49:25;;;;;;;42.92;18.95;;;-4.30;99.90;;;;;;5106375;28;20055;-61
2022/12/13 01:51:54;;;;;;;41.97;19.77;;;-4.20;99.90;;;;;;5083236;28;20087;-61
2022/12/13 01:54:29;;;;;;;42.75;19.27;;;-4.20;99.90;;;;;;5106891;28;20051;-61
2022/12/13 01:56:56;;;;;;;46.95;20.98;;;-4.30;99.90;;;;;;5106291;28;20394;-61
2022/12/13 01:59:23;;;;;;;52.15;21.10;;;-4.30;99.90;;;;;;5105600;28;20044;-61
2022/12/13 02:01:49;;;;;;;42.63;19.92;;;-4.30;99.90;;;;;;5105883;28;20040;-61
2022/12/13 02:04:39;;;;;;;45.60;20.90;;;-4.40;99.90;;;;;;5105803;28;20040;-61
2022/12/13 02:07:05;;;;;;;48.17;21.50;;;-4.40;99.90;;;;;;5106363;28;20055;-61
2022/12/13 02:09:34;;;;;;;40.60;19.85;;;-4.30;99.90;;;;;;5093616;28;20142;-61
2022/12/13 02:12:00;;;;;;;39.05;19.58;;;-4.30;99.90;;;;;;5096070;28;20085;-61
2022/12/13 02:14:27;;;;;;;43.22;20.48;;;-4.40;99.90;;;;;;5106211;28;20035;-61
2022/12/13 02:16:55;;;;;;;46.55;21.60;;;-4.40;99.90;;;;;;5105866;28;20404;-61
2022/12/13 02:19:55;;;;;;;39.95;19.85;;;-4.40;99.90;;;;;;5106489;28;20546;-61
2022/12/13 02:22:39;;;;;;;42.55;20.15;;;-4.40;99.90;;;;;;5105682;28;20058;-61
2022/12/13 02:25:15;;;;;;;45.55;19.15;;;-4.40;99.90;;;;;;5116940;28;20039;-61
2022/12/13 02:28:11;;;;;;;50.33;20.55;;;-4.50;99.90;;;;;;5106393;28;20064;-61
2022/12/13 02:30:52;;;;;;;42.38;20.50;;;-4.50;99.90;;;;;;5105941;28;20153;-61
2022/12/13 02:33:27;;;;;;;39.53;20.65;;;-4.40;99.90;;;;;;5121419;28;20043;-61
2022/12/13 02:36:07;;;;;;;42.65;20.40;;;-4.50;99.90;;;;;;5112351;28;20056;-61
2022/12/13 02:39:00;;;;;;;40.40;18.70;;;-4.50;99.90;;;;;;5105500;28;20063;-61
2022/12/13 02:41:46;;;;;;;40.17;20.55;;;-4.60;99.90;;;;;;5106264;28;20051;-61
2022/12/13 02:44:24;;;;;;;35.50;18.80;;;-4.60;99.90;;;;;;5105591;28;20052;-61
2022/12/13 02:46:53;;;;;;;44.20;19.15;;;-4.60;99.90;;;;;;5105582;28;20479;-61
2022/12/13 02:49:21;;;;;;;40.75;18.80;;;-4.60;99.90;;;;;;5106339;28;20508;-61
2022/12/13 02:51:52;;;;;;;36.38;18.85;;;-4.60;99.90;;;;;;5086873;28;20082;-61
2022/12/13 02:54:18;;;;;;;46.17;19.70;;;-4.60;99.90;;;;;;5107126;28;20431;-61
2022/12/13 02:56:56;;;;;;;41.53;19.90;;;-4.70;99.90;;;;;;5105578;28;20040;-61
2022/12/13 02:59:35;;;;;;;35.78;17.70;;;-4.70;99.90;;;;;;5114457;28;20036;-61
2022/12/13 03:02:22;;;;;;;35.50;18.08;;;-4.70;99.90;;;;;;5107394;28;20518;-61
2022/12/13 03:08:38;;;;;;;41.95;19.67;;;-4.80;99.90;;;;;;5105650;28;20563;-61
2022/12/13 03:11:16;;;;;;;39.75;19.10;;;-4.80;99.90;;;;;;5098661;28;20526;-61
2022/12/13 03:14:06;;;;;;;39.65;18.58;;;-4.70;99.90;;;;;;5109445;27;20043;-61
2022/12/13 03:16:39;;;;;;;41.88;19.63;;;-4.70;99.90;;;;;;5110024;28;20382;-61
2022/12/13 03:19:08;;;;;;;41.25;19.08;;;-4.70;99.90;;;;;;5090300;28;20051;-60
2022/12/13 03:21:43;;;;;;;39.65;18.75;;;-4.70;99.90;;;;;;5109160;28;20039;-61
2022/12/13 03:24:10;;;;;;;41.95;18.92;;;-4.70;99.90;;;;;;5113218;27;20093;-61
2022/12/13 03:26:37;;;;;;;45.88;20.05;;;-4.60;99.90;;;;;;5108604;28;20054;-61
2022/12/13 03:29:04;;;;;;;42.75;19.77;;;-4.70;99.90;;;;;;5109447;28;20424;-61
2022/12/13 03:31:29;;;;;;;42.58;19.50;;;-4.70;99.90;;;;;;5108773;28;20641;-61
2022/12/13 03:33:55;;;;;;;39.33;19.08;;;-4.70;99.90;;;;;;5111524;27;20060;-61
2022/12/13 03:36:21;;;;;;;41.47;20.27;;;-4.70;99.90;;;;;;5108187;28;20116;-61
2022/12/13 03:38:49;;;;;;;43.05;19.35;;;-4.70;99.90;;;;;;5108326;28;20047;-60
2022/12/13 03:41:19;;;;;;;38.55;19.25;;;-4.80;99.90;;;;;;5090066;28;20044;-61
2022/12/13 03:43:45;;;;;;;43.90;19.15;;;-4.80;99.90;;;;;;5107490;28;20048;-61
2022/12/13 03:46:10;;;;;;;45.97;19.92;;;-4.80;99.90;;;;;;5090042;28;20050;-61
2022/12/13 03:48:36;;;;;;;40.20;19.13;;;-4.90;99.90;;;;;;5108105;28;20043;-61
2022/12/13 03:51:02;;;;;;;44.90;19.98;;;-4.90;99.90;;;;;;5090653;28;20070;-61
2022/12/13 03:53:29;;;;;;;44.45;20.48;;;-4.90;99.90;;;;;;5090148;27;20474;-61
2022/12/13 03:55:54;;;;;;;45.15;19.38;;;-4.90;99.90;;;;;;5090218;28;20051;-61
2022/12/13 03:58:20;;;;;;;39.20;18.67;;;-4.90;99.90;;;;;;5107668;28;20043;-61
2022/12/13 04:00:46;;;;;;;47.78;19.92;;;-4.90;99.90;;;;;;5108302;28;20092;-61
2022/12/13 04:03:12;;;;;;;49.03;23.48;;;-4.90;99.90;;;;;;5108055;28;20040;-61
2022/12/13 04:05:38;;;;;;;43.58;19.33;;;-4.90;99.90;;;;;;5118409;27;20071;-61
2022/12/13 04:08:04;;;;;;;51.17;21.23;;;-4.90;99.90;;;;;;5089971;28;20052;-61
2022/12/13 04:10:30;;;;;;;41.80;19.23;;;-4.90;99.90;;;;;;5122393;27;20031;-61
2022/12/13 04:15:47;;;;;;;44.38;19.10;;;-4.80;99.90;;;;;;5120438;27;20043;-61
2022/12/13 04:18:15;;;;;;;41.28;18.30;;;-4.80;99.90;;;;;;5072877;28;20501;-61
2022/12/13 04:20:41;;;;;;;44.50;19.70;;;-4.80;99.90;;;;;;5108397;28;20460;-61
2022/12/13 04:23:07;;;;;;;41.65;20.00;;;-4.80;99.90;;;;;;5106306;28;20075;-61
2022/12/13 04:25:32;;;;;;;43.63;19.15;;;-4.80;99.90;;;;;;5115459;27;20111;-61
2022/12/13 04:27:58;;;;;;;41.20;19.35;;;-4.70;99.90;;;;;;5090878;28;20051;-61
2022/12/13 04:30:24;;;;;;;44.40;20.45;;;-4.80;99.90;;;;;;5107850;28;20718;-61
2022/12/13 04:32:50;;;;;;;43.63;20.15;;;-4.70;99.90;;;;;;5089136;28;20119;-61
2022/12/13 04:35:15;;;;;;;43.72;19.02;;;-4.70;99.90;;;;;;5107969;27;20090;-61
2022/12/13 04:37:42;;;;;;;42.13;18.85;;;-4.70;99.90;;;;;;5113436;27;20055;-61
2022/12/13 04:40:08;;;;;;;38.58;17.85;;;-4.70;99.90;;;;;;5115892;27;20051;-61
2022/12/13 04:42:34;;;;;;;37.35;19.92;;;-4.60;99.90;;;;;;5108171;28;20047;-61
2022/12/13 04:45:00;;;;;;;43.05;19.48;;;-4.60;99.90;;;;;;5086457;28;20051;-61
2022/12/13 04:47:26;;;;;;;42.05;18.90;;;-4.70;99.90;;;;;;5093167;28;20043;-61
2022/12/13 04:49:51;;;;;;;44.25;19.55;;;-4.60;99.90;;;;;;5107443;28;20046;-61
2022/12/13 04:52:17;;;;;;;38.00;18.58;;;-4.60;99.90;;;;;;5106782;28;20039;-60
2022/12/13 04:54:43;;;;;;;40.95;18.92;;;-4.60;99.90;;;;;;5107854;27;20130;-61
2022/12/13 04:57:10;;;;;;;42.22;18.13;;;-4.70;99.90;;;;;;5109065;27;20042;-61
2022/12/13 04:59:36;;;;;;;41.45;19.42;;;-4.70;99.90;;;;;;5110486;27;20764;-60
2022/12/13 05:02:04;;;;;;;40.25;18.23;;;-4.70;99.90;;;;;;5117369;27;20051;-61
2022/12/13 05:04:30;;;;;;;37.67;16.83;;;-4.70;99.90;;;;;;5118225;27;20055;-61
2022/12/13 05:06:57;;;;;;;36.80;16.90;;;-4.70;99.90;;;;;;5126457;27;20477;-61
2022/12/13 05:09:23;;;;;;;41.28;18.90;;;-4.70;99.90;;;;;;5087487;27;20421;-60
2022/12/13 05:11:49;;;;;;;41.22;18.98;;;-4.70;99.90;;;;;;5116492;27;20110;-61
2022/12/13 05:14:15;;;;;;;39.90;18.48;;;-4.70;99.90;;;;;;5105849;28;20485;-60
2022/12/13 05:16:41;;;;;;;38.65;18.80;;;-4.70;99.90;;;;;;5089021;28;20041;-60
2022/12/13 05:19:07;;;;;;;37.65;17.48;;;-4.80;99.90;;;;;;5088468;28;20040;-60
2022/12/13 05:21:33;;;;;;;43.95;19.77;;;-4.80;99.90;;;;;;5088675;28;20043;-61
2022/12/13 05:24:02;;;;;;;44.65;18.73;;;-4.80;99.90;;;;;;5106639;28;20052;-61
2022/12/13 05:26:28;;;;;;;41.47;18.75;;;-4.80;99.90;;;;;;5106735;28;20077;-61
2022/12/13 05:28:55;;;;;;;45.20;19.77;;;-4.80;99.90;;;;;;5106983;28;20052;-61
2022/12/13 05:31:21;;;;;;;40.40;18.80;;;-4.80;99.90;;;;;;5100220;27;20062;-60
2022/12/13 05:33:48;;;;;;;40.20;18.95;;;-4.90;99.90;;;;;;5117090;27;20152;-60
2022/12/13 05:36:16;;;;;;;38.30;18.33;;;-4.90;99.90;;;;;;5087857;28;20058;-60
2022/12/13 05:38:41;;;;;;;41.92;18.95;;;-4.90;99.90;;;;;;5106779;28;20068;-61
2022/12/13 05:41:15;;;;;;;43.90;17.58;;;-4.90;99.90;;;;;;5114933;27;20045;-60
2022/12/13 05:43:41;;;;;;;45.38;19.10;;;-4.90;99.90;;;;;;5107039;28;20435;-61
2022/12/13 05:46:07;;;;;;;41.35;20.08;;;-4.90;99.90;;;;;;5106440;28;20032;-61
2022/12/13 05:48:32;;;;;;;39.55;19.20;;;-4.90;99.90;;;;;;5105589;28;20035;-60
2022/12/13 05:50:58;;;;;;;36.80;18.42;;;-4.90;99.90;;;;;;5110447;27;20594;-61
2022/12/13 05:53:24;;;;;;;38.03;19.27;;;-4.90;99.90;;;;;;5089237;27;20035;-60
2022/12/13 05:55:50;;;;;;;46.15;19.70;;;-4.90;99.90;;;;;;5117949;27;20043;-60
2022/12/13 05:58:16;;;;;;;35.17;18.42;;;-5.00;99.90;;;;;;5087316;28;20077;-61
2022/12/13 06:00:42;;;;;;;44.80;17.60;;;-5.00;99.90;;;;;;5106494;28;20043;-60
2022/12/13 06:03:08;;;;;;;44.83;19.00;;;-5.00;99.90;;;;;;5110856;28;20092;-60
2022/12/13 06:05:34;;;;;;;36.83;18.20;;;-4.90;99.90;;;;;;5106019;28;20039;-61
2022/12/13 06:08:00;;;;;;;44.03;19.75;;;-4.90;99.90;;;;;;5088512;28;20186;-60
2022/12/13 06:10:26;;;;;;;43.05;19.38;;;-4.90;99.90;;;;;;5119402;28;20031;-60
2022/12/13 06:12:52;;;;;;;40.47;17.35;;;-4.90;99.90;;;;;;5092614;28;20036;-61
2022/12/13 06:15:18;;;;;;;45.67;19.30;;;-4.90;99.90;;;;;;5105661;28;20048;-60
2022/12/13 06:17:44;;;;;;;46.65;20.33;;;-4.90;99.90;;;;;;5106065;28;20040;-60
2022/12/13 06:20:10;;;;;;;46.70;17.80;;;-4.90;99.90;;;;;;5105715;28;20067;-60
2022/12/13 06:22:36;;;;;;;41.28;19.25;;;-4.90;99.90;;;;;;5073394;28;20043;-60
2022/12/13 06:25:02;;;;;;;38.53;18.33;;;-4.90;99.90;;;;;;5105937;28;20066;-61
2022/12/13 06:27:28;;;;;;;37.70;18.63;;;-4.90;99.90;;;;;;5105737;28;20043;-60
2022/12/13 06:29:54;;;;;;;41.38;18.92;;;-5.00;99.90;;;;;;5106110;28;20043;-61
2022/12/13 06:32:20;;;;;;;39.88;18.90;;;-5.00;99.90;;;;;;5107012;28;20096;-61
2022/12/13 06:34:45;;;;;;;34.55;17.67;;;-5.00;99.90;;;;;;5118577;28;20363;-61
2022/12/13 06:37:12;;;;;;;45.33;18.92;;;-5.00;99.90;;;;;;5086900;28;20051;-60
2022/12/13 06:39:39;;;;;;;36.33;17.73;;;-5.00;99.90;;;;;;5105831;28;20055;-60
2022/12/13 06:42:13;;;;;;;43.35;20.50;;;-5.00;99.90;;;;;;5105728;28;20412;-60
2022/12/13 06:44:40;;;;;;;40.72;18.27;;;-5.00;99.90;;;;;;5115656;28;20051;-61
2022/12/13 06:47:06;;;;;;;42.33;18.15;;;-5.00;99.90;;;;;;5109387;28;20039;-60
2022/12/13 06:49:33;;;;;;;34.40;17.80;;;-5.00;99.90;;;;;;5109096;28;20036;-60
2022/12/13 06:51:58;;;;;;;33.65;18.15;;;-5.00;99.90;;;;;;5091746;28;20047;-60
2022/12/13 06:54:24;;;;;;;36.72;18.80;;;-5.00;99.90;;;;;;5113150;27;20061;-60
2022/12/13 06:56:50;;;;;;;38.00;18.50;;;-5.00;99.90;;;;;;5127016;27;20043;-60
2022/12/13 06:59:15;;;;;;;41.58;18.10;;;-5.00;99.90;;;;;;5109577;28;20090;-60
2022/12/13 07:01:41;;;;;;;49.45;19.92;;;-5.00;99.90;;;;;;5109343;28;20044;-61
2022/12/13 07:04:10;;;;;;;39.50;19.05;;;-5.00;99.90;;;;;;5091581;28;20036;-61
2022/12/13 07:06:36;;;;;;;41.78;19.48;;;-5.00;99.90;;;;;;5111770;27;20134;-60
2022/12/13 07:09:01;;;;;;;40.08;18.83;;;-5.10;99.90;;;;;;5115906;27;20126;-60
2022/12/13 07:11:30;;;;;;;42.60;19.67;;;-5.00;99.90;;;;;;5102913;28;20085;-61
2022/12/13 07:13:56;;;;;;;41.58;18.70;;;-5.00;99.90;;;;;;5074904;28;20504;-60
2022/12/13 07:16:23;;;;;;;40.22;17.95;;;-5.00;99.90;;;;;;5112702;27;20043;-61
2022/12/13 07:18:56;;;;;;;38.40;18.83;;;-5.00;99.90;;;;;;5109022;28;20079;-61
2022/12/13 07:21:22;;;;;;;42.40;19.02;;;-5.00;99.90;;;;;;5096974;27;20055;-60
2022/12/13 07:23:51;;;;;;;44.70;19.13;;;-5.00;99.90;;;;;;5116948;27;20125;-61
2022/12/13 07:26:18;;;;;;;39.30;18.35;;;-5.00;99.90;;;;;;5090501;28;20482;-61
2022/12/13 07:28:45;;;;;;;46.20;17.17;;;-5.00;99.90;;;;;;5107992;28;20035;-61
2022/12/13 07:31:12;;;;;;;42.88;16.42;;;-5.00;99.90;;;;;;5109167;28;20059;-60
2022/12/13 07:33:38;;;;;;;38.60;18.20;;;-4.90;99.90;;;;;;5108259;28;20401;-61
2022/12/13 07:36:13;;;;;;;42.85;18.17;;;-4.90;99.90;;;;;;5118382;27;20449;-60
2022/12/13 07:38:40;;;;;;;48.30;22.55;;;-4.80;99.90;;;;;;5108425;28;20139;-61
2022/12/13 07:41:06;;;;;;;43.13;19.85;;;-4.80;99.90;;;;;;5108547;28;20119;-61
2022/12/13 07:43:32;;;;;;;42.85;18.80;;;-4.80;99.90;;;;;;5117158;27;20039;-61
2022/12/13 07:46:00;;;;;;;43.97;19.42;;;-4.70;99.90;;;;;;5072993;28;20619;-61
2022/12/13 07:48:26;;;;;;;41.97;19.20;;;-4.70;99.90;;;;;;5113786;27;20039;-61
2022/12/13 07:50:53;;;;;;;44.83;20.13;;;-4.70;99.90;;;;;;5117611;27;20130;-61
2022/12/13 07:53:20;;;;;;;50.17;21.02;;;-4.70;99.90;;;;;;5108425;28;20515;-61
2022/12/13 07:55:46;;;;;;;44.92;21.98;;;-4.70;99.90;;;;;;5090106;28;20036;-61
2022/12/13 07:58:14;;;;;;;50.95;22.70;;;-4.60;99.90;;;;;;5109381;27;20036;-61
2022/12/13 08:00:42;;;;;;;50.05;22.13;;;-4.60;99.90;;;;;;5108172;28;20051;-60
2022/12/13 08:03:08;;;;;;;52.25;21.17;;;-4.50;99.90;;;;;;5128366;27;20058;-61
2022/12/13 08:05:35;;;;;;;48.42;20.63;;;-4.50;99.90;;;;;;5124452;27;20397;-61
2022/12/13 08:08:03;;;;;;;51.25;21.35;;;-4.50;99.90;;;;;;5120239;27;20039;-61
2022/12/13 08:10:29;;;;;;;47.42;20.92;;;-4.40;99.90;;;;;;5123946;27;20647;-61
2022/12/13 08:12:55;;;;;;;42.13;18.98;;;-4.40;99.90;;;;;;5128063;27;20062;-61
2022/12/13 08:15:21;;;;;;;49.30;21.52;;;-4.40;99.90;;;;;;5125790;27;20066;-61
2022/12/13 08:17:47;;;;;;;50.78;22.90;;;-4.40;99.90;;;;;;5126851;27;20523;-61
2022/12/13 08:20:13;;;;;;;45.33;21.35;;;-4.40;99.90;;;;;;5117630;27;20039;-61
2022/12/13 08:22:39;;;;;;;53.40;21.17;;;-4.40;99.90;;;;;;5107919;27;20446;-61
2022/12/13 08:25:06;;;;;;;53.63;23.17;;;-4.30;99.90;;;;;;5127756;27;20360;-61
2022/12/13 08:27:32;;;;;;;52.42;20.65;;;-4.30;99.90;;;;;;5097290;27;20883;-61
2022/12/13 08:29:58;;;;;;;47.25;20.42;;;-4.20;99.90;;;;;;5101081;28;20168;-61
2022/12/13 08:32:24;;;;;;;52.42;21.60;;;-4.20;99.90;;;;;;5102156;27;20138;-61
2022/12/13 08:34:50;;;;;;;44.03;20.83;;;-4.10;99.90;;;;;;5127928;27;20035;-60
2022/12/13 08:37:16;;;;;;;49.38;22.55;;;-4.10;99.90;;;;;;5127328;27;20043;-61
2022/12/13 08:39:43;;;;;;;52.20;22.80;;;-4.00;99.90;;;;;;5089747;27;20494;-61
2022/12/13 08:42:16;;;;;;;47.63;21.42;;;-4.00;99.90;;;;;;5127600;27;20043;-61
2022/12/13 08:44:42;;;;;;;43.95;17.08;;;-3.90;99.90;;;;;;5128542;27;20058;-61
2022/12/13 08:47:08;;;;;;;48.60;19.98;;;-3.80;99.90;;;;;;5127638;27;20039;-61
2022/12/13 08:49:34;;;;;;;51.67;23.90;;;-3.70;99.90;;;;;;5128110;27;20137;-60
2022/12/13 08:52:00;;;;;;;56.15;21.80;;;-3.60;99.90;;;;;;5117491;27;20160;-61
2022/12/13 08:54:25;;;;;;;50.47;22.60;;;-3.60;99.90;;;;;;5108960;27;20039;-60
2022/12/13 08:56:51;;;;;;;49.65;21.27;;;-3.50;99.90;;;;;;5094625;27;20035;-60
2022/12/13 08:59:17;;;;;;;57.35;24.40;;;-3.40;99.90;;;;;;5098818;28;20040;-61
2022/12/13 09:01:44;;;;;;;51.40;23.42;;;-3.30;99.90;;;;;;5113064;27;20123;-61
2022/12/13 09:04:10;;;;;;;51.65;23.30;;;-3.30;99.90;;;;;;5117417;27;20078;-60
2022/12/13 09:06:36;;;;;;;56.42;23.58;;;-3.30;99.90;;;;;;5128216;27;20504;-60
2022/12/13 09:09:02;;;;;;;57.03;25.33;;;-3.20;99.90;;;;;;5105669;27;20054;-61
2022/12/13 09:11:27;;;;;;;43.05;20.75;;;-3.20;99.90;;;;;;5102960;27;20040;-61
2022/12/13 09:13:54;;;;;;;50.53;23.65;;;-3.20;99.90;;;;;;5094528;28;20066;-60
2022/12/13 09:16:23;;;;;;;49.85;22.20;;;-3.10;99.90;;;;;;5088446;28;20089;-61
2022/12/13 09:18:50;;;;;;;46.00;19.90;;;-3.10;99.90;;;;;;5106967;28;20466;-61
2022/12/13 09:21:16;;;;;;;56.22;24.48;;;-3.00;99.90;;;;;;5094836;28;20047;-61
2022/12/13 09:23:42;;;;;;;51.65;22.98;;;-3.00;99.90;;;;;;5110036;27;20051;-61
2022/12/13 09:26:10;;;;;;;51.53;23.77;;;-3.00;99.90;;;;;;5114011;27;20043;-61
2022/12/13 09:28:37;;;;;;;44.00;21.33;;;-3.00;99.90;;;;;;5113644;27;20039;-61
2022/12/13 09:31:11;;;;;;;51.92;23.55;;;-2.90;99.90;;;;;;5112503;27;20374;-61
2022/12/13 09:33:37;;;;;;;50.45;21.30;;;-2.90;99.90;;;;;;5105857;27;20042;-61
2022/12/13 09:36:05;;;;;;;55.53;24.35;;;-3.00;99.90;;;;;;5088634;28;20084;-61
2022/12/13 09:38:35;;;;;;;50.88;22.92;;;-3.00;99.90;;;;;;5108490;27;20115;-61
2022/12/13 09:41:30;;;;;;;49.90;22.00;;;-2.90;99.90;;;;;;5119324;27;20374;-61
2022/12/13 09:44:06;;;;;;;48.17;21.95;;;-3.00;99.90;;;;;;5107519;27;20031;-61
2022/12/13 09:46:37;;;;;;;51.67;23.73;;;-3.00;99.90;;;;;;5111585;27;20552;-61
2022/12/13 09:49:12;;;;;;;54.97;27.65;;;-3.00;99.90;;;;;;5106517;27;21298;-61
2022/12/13 09:51:38;;;;;;;58.50;24.92;;;-2.90;99.90;;;;;;5112174;27;20043;-61
2022/12/13 09:54:03;;;;;;;53.22;25.38;;;-2.90;99.90;;;;;;5113002;27;20044;-61
2022/12/13 09:56:29;;;;;;;61.33;26.80;;;-2.80;99.90;;;;;;5111216;27;20043;-61
2022/12/13 09:58:55;;;;;;;65.38;28.70;;;-2.80;99.90;;;;;;5108581;27;20115;-61
2022/12/13 10:01:22;;;;;;;55.30;27.95;;;-2.80;99.90;;;;;;5080159;28;20043;-61
2022/12/13 10:03:54;;;;;;;52.65;24.20;;;-2.80;99.90;;;;;;5098716;28;20050;-61
2022/12/13 10:06:27;;;;;;;66.10;28.27;;;-2.80;99.90;;;;;;5085292;28;20185;-61
2022/12/13 10:08:56;;;;;;;58.10;25.85;;;-2.80;99.90;;;;;;5114163;28;20051;-61
2022/12/13 10:11:22;;;;;;;54.70;23.17;;;-2.70;99.90;;;;;;5089258;28;20043;-61
2022/12/13 10:13:58;;;;;;;54.58;25.48;;;-2.60;99.90;;;;;;5098928;28;20048;-61
2022/12/13 10:16:35;;;;;;;47.25;22.50;;;-2.60;99.90;;;;;;5109439;28;20051;-61
2022/12/13 10:19:13;;;;;;;45.55;19.50;;;-2.50;99.90;;;;;;5110408;28;20047;-61
2022/12/13 10:21:43;;;;;;;43.05;20.30;;;-2.40;99.90;;;;;;5104903;27;20055;-61
2022/12/13 10:24:26;;;;;;;56.13;24.90;;;-2.40;99.90;;;;;;5112967;27;20047;-61
2022/12/13 10:26:53;;;;;;;53.30;22.85;;;-2.30;99.90;;;;;;5110360;27;20039;-61
2022/12/13 10:29:19;;;;;;;54.33;26.00;;;-2.20;99.90;;;;;;5117663;27;20347;-61
2022/12/13 10:31:49;;;;;;;52.90;22.95;;;-2.10;99.90;;;;;;5094123;27;20042;-61
2022/12/13 10:34:35;;;;;;;52.05;23.60;;;-2.10;99.90;;;;;;5113887;27;20036;-61
2022/12/13 10:37:30;;;;;;;57.10;23.50;;;-2.00;99.90;;;;;;5110508;27;20039;-61
2022/12/13 10:39:57;;;;;;;56.40;25.73;;;-1.90;99.90;;;;;;5118733;27;20049;-61
2022/12/13 10:42:23;;;;;;;49.40;20.67;;;-1.80;99.90;;;;;;5128368;27;20044;-61
2022/12/13 10:45:16;;;;;;;62.78;26.08;;;-1.80;99.90;;;;;;5126832;27;20051;-61
2022/12/13 10:47:43;;;;;;;63.05;28.70;;;-1.70;99.90;;;;;;5096271;28;20043;-61
2022/12/13 10:50:23;;;;;;;54.03;26.80;;;-1.70;99.90;;;;;;5078944;27;20402;-61
2022/12/13 10:52:51;;;;;;;63.05;26.60;;;-1.60;99.90;;;;;;5116825;27;20039;-61
2022/12/13 10:55:28;;;;;;;61.15;27.25;;;-1.50;99.90;;;;;;5105991;28;20493;-61
2022/12/13 10:58:01;;;;;;;58.83;24.42;;;-1.50;99.90;;;;;;5113178;27;20050;-61
2022/12/13 11:00:37;;;;;;;56.50;26.00;;;-1.40;99.90;;;;;;5114171;27;20039;-61
2022/12/13 11:03:04;;;;;;;53.85;23.17;;;-1.40;99.90;;;;;;5099704;27;20138;-61
2022/12/13 11:05:33;;;;;;;55.17;25.00;;;-1.30;99.90;;;;;;5118507;27;20084;-61
2022/12/13 11:08:25;;;;;;;64.90;26.17;;;-1.30;99.90;;;;;;5099412;27;20924;-61
2022/12/13 11:11:02;;;;;;;50.13;21.77;;;-1.20;99.90;;;;;;5120365;27;20490;-61
2022/12/13 11:13:35;;;;;;;55.85;25.10;;;-1.20;99.90;;;;;;5108871;28;20150;-61
2022/12/13 11:16:02;;;;;;;57.42;24.45;;;-1.10;99.90;;;;;;5109183;28;20040;-61
2022/12/13 11:18:36;;;;;;;48.13;23.30;;;-1.10;99.90;;;;;;5108823;27;20043;-61
2022/12/13 11:21:03;;;;;;;46.05;20.20;;;-1.00;99.90;;;;;;5108306;27;20048;-61
2022/12/13 11:23:43;;;;;;;54.72;25.80;;;-1.00;99.90;;;;;;5115163;27;20039;-61
2022/12/13 11:26:16;;;;;;;54.42;25.23;;;-1.00;99.90;;;;;;5092816;27;20043;-61
2022/12/13 11:29:07;;;;;;;53.55;22.83;;;-1.00;99.90;;;;;;5088992;28;20047;-61
2022/12/13 11:31:55;;;;;;;;;;;-0.90;99.90;;;;;;5115568;27;20159;-61
2022/12/13 11:34:39;;;;;;;53.45;21.75;;;-0.90;99.90;;;;;;5105606;27;19920;-61
2022/12/13 11:37:20;;;;;;;50.13;23.67;;;-0.80;99.90;;;;;;5111473;27;20539;-61
2022/12/13 11:39:49;;;;;;;;;;;-0.80;99.90;;;;;;5115654;28;20050;-61
2022/12/13 11:42:29;;;;;;;50.55;22.77;;;-0.70;99.90;;;;;;5095240;28;20380;-61
2022/12/13 11:45:19;;;;;;;33.65;14.45;;;-0.70;99.90;;;;;;5124168;28;20130;-62
2022/12/13 11:47:48;;;;;;;40.47;20.35;;;-0.70;99.90;;;;;;5111491;28;20039;-62
2022/12/13 11:50:19;;;;;;;46.72;21.05;;;-0.60;99.90;;;;;;5092619;28;20032;-61
2022/12/13 11:52:53;;;;;;;51.75;23.15;;;-0.60;99.90;;;;;;5121968;28;20541;-61
2022/12/13 11:55:24;;;;;;;54.65;22.35;;;-0.60;99.90;;;;;;5115926;28;20066;-62
2022/12/13 11:58:16;;;;;;;54.72;24.35;;;-0.50;99.90;;;;;;5126620;28;20435;-61
2022/12/13 12:00:53;;;;;;;62.42;25.60;;;-0.50;99.90;;;;;;5091275;28;20115;-61
2022/12/13 12:04:04;;;;;;;62.42;27.10;;;-0.30;99.90;;;;;;5106871;28;20118;-62
2022/12/13 12:06:39;;;;;;;49.83;23.73;;;-0.30;99.90;;;;;;5010515;28;20045;-61
2022/12/13 12:09:15;;;;;;;52.72;21.50;;;-0.20;99.90;;;;;;5108068;28;20066;-62
2022/12/13 12:11:53;;;;;;;50.78;23.48;;;-0.30;99.90;;;;;;5121307;28;20078;-62
2022/12/13 12:14:22;;;;;;;56.45;24.67;;;-0.30;99.90;;;;;;5108406;28;20047;-62
2022/12/13 12:16:54;;;;;;;58.42;25.58;;;-0.30;99.90;;;;;;5099764;28;20101;-62
2022/12/13 12:19:22;;;;;;;64.63;26.98;;;-0.30;99.90;;;;;;5093914;28;20051;-62
2022/12/13 12:21:59;;;;;;;60.22;26.85;;;-0.20;99.90;;;;;;5088590;28;20228;-61
2022/12/13 12:24:44;;;;;;;66.53;28.63;;;-0.20;99.90;;;;;;5111088;28;20077;-62
2022/12/13 12:27:19;;;;;;;66.82;27.15;;;-0.10;99.90;;;;;;5109789;28;20112;-62
2022/12/13 12:30:31;;;;;;;63.85;27.10;;;0.00;99.90;;;;;;5107053;28;20047;-61
2022/12/13 12:32:57;;;;;;;52.35;21.48;;;0.10;99.90;;;;;;5020206;28;20033;-62
2022/12/13 12:35:38;;;;;;;57.33;26.65;;;0.10;99.90;;;;;;5091508;28;20054;-62
2022/12/13 12:38:25;;;;;;;54.50;24.50;;;0.20;99.90;;;;;;5068234;28;1107303;-62
2022/12/13 12:41:15;;;;;;;55.15;24.13;;;0.20;99.90;;;;;;5107518;28;20114;-62
2022/12/13 12:43:42;;;;;;;49.13;18.92;;;0.30;99.90;;;;;;5106350;28;20043;-61
2022/12/13 12:46:23;;;;;;;51.78;23.60;;;0.40;99.90;;;;;;5108185;28;20115;-62
2022/12/13 12:49:13;;;;;;;62.58;26.13;;;0.40;99.90;;;;;;5115553;27;20050;-62